PWSweather.com
Personal Weather Stations
Station Observations
BALTRELAY
Relay, Baltimore, MD 21227

RelayBaltimore, MD 21227

Lat: 39.24588, Lon: -76.719772

Elevation: 221

Station Type: Davis Vantage Pro2 (6153)

http://www.relayweather.com

Latest ConditionsUpdated 1:50:04 PM GMT Friday, Jan 30, 2015
Currently Today's Max Today's Min Today's Average
Temperature 35.9°F2.2°C 37.3°F2.9°C 30.7°F-0.7°C 33.8°F1.0°C
Dew Point 26.4°F-3.1°C 29.3°F-1.5°C 25.7°F-3.5°C 27.7°F-2.4°C
Winds 7.8 mph W12.6 kmh W 10.2 mph W16.4 kmh W - 2.4 mph 3.9 kmh
Wind Gusts 18.2 mph29.3 kmh 18.2 mph29.3 kmh - -
Humidity 68% 88% 66% 78%
Pressure 29.95 in1014.2 mb 30.03 in1016.9 mb 29.87 in1011.5 mb -
Precipitation - 0.01 in0.3 mm - -
Hour Temp Dew Point Humidity Winds Wind Gusts Pressure Precip Precip Rate Daily Precip Total
01:50 PM 35.9°F2.2°C 26.4°F-3.1°C 68% 7.8 mph W12.6 kmh W 18.2 mph29.3 kmh 29.95 in1014.2 mb 0.00 in0.0 mm 0.00 in/hr0.0 mm/hr 0.01 in0.3 mm
01:45 PM 35.9°F2.2°C 26.0°F-3.3°C 67% 8.2 mph WNW13.2 kmh WNW 11.1 mph17.9 kmh 29.95 in1014.2 mb 0.00 in0.0 mm 0.00 in/hr0.0 mm/hr 0.01 in0.3 mm
01:40 PM 36.3°F2.4°C 26.4°F-3.1°C 67% 7.4 mph NW11.9 kmh NW 9.1 mph14.6 kmh 29.94 in1013.9 mb 0.01 in0.3 mm 0.06 in/hr1.5 mm/hr 0.01 in0.3 mm
01:30 PM 37.3°F2.9°C 26.9°F-2.8°C 66% 7.4 mph NW11.9 kmh NW 9.1 mph14.6 kmh 29.94 in1013.9 mb 0.00 in0.0 mm 0.00 in/hr0.0 mm/hr 0.00 in0.0 mm
01:20 PM 36.4°F2.4°C 26.9°F-2.8°C 68% 5.0 mph W8.0 kmh W 11.1 mph17.9 kmh 29.94 in1013.9 mb 0.00 in0.0 mm 0.00 in/hr0.0 mm/hr 0.00 in0.0 mm
01:15 PM 36.0°F2.2°C 26.4°F-3.1°C 68% 8.9 mph W14.3 kmh W 8.1 mph13.0 kmh 29.94 in1013.9 mb 0.00 in0.0 mm 0.00 in/hr0.0 mm/hr 0.00 in0.0 mm
01:10 PM 35.7°F2.1°C 26.5°F-3.1°C 69% 9.9 mph NW15.9 kmh NW 14.1 mph22.7 kmh 29.93 in1013.5 mb 0.00 in0.0 mm 0.00 in/hr0.0 mm/hr 0.00 in0.0 mm
01:00 PM 35.1°F1.7°C 25.9°F-3.4°C 69% 6.7 mph WNW10.8 kmh WNW 11.1 mph17.9 kmh 29.94 in1013.9 mb 0.00 in0.0 mm 0.00 in/hr0.0 mm/hr 0.00 in0.0 mm
12:50 PM 35.4°F1.9°C 25.9°F-3.4°C 68% 6.7 mph NW10.8 kmh NW 10.1 mph16.3 kmh 29.94 in1013.9 mb 0.00 in0.0 mm 0.00 in/hr0.0 mm/hr 0.00 in0.0 mm
12:45 PM 35.4°F1.9°C 26.3°F-3.2°C 69% 5.6 mph NNW9.0 kmh NNW 9.1 mph14.6 kmh 29.93 in1013.5 mb 0.00 in0.0 mm 0.00 in/hr0.0 mm/hr 0.00 in0.0 mm
12:40 PM 35.2°F1.8°C 26.1°F-3.3°C 69% 7.9 mph W12.7 kmh W 12.1 mph19.5 kmh 29.94 in1013.9 mb 0.00 in0.0 mm 0.00 in/hr0.0 mm/hr 0.00 in0.0 mm
12:30 PM 34.9°F1.6°C 25.7°F-3.5°C 69% 4.7 mph NW7.6 kmh NW 8.1 mph13.0 kmh 29.93 in1013.5 mb 0.00 in0.0 mm 0.00 in/hr0.0 mm/hr 0.00 in0.0 mm
12:20 PM 34.9°F1.6°C 26.1°F-3.3°C 70% 8.6 mph NW13.8 kmh NW 11.1 mph17.9 kmh 29.93 in1013.5 mb 0.00 in0.0 mm 0.00 in/hr0.0 mm/hr 0.00 in0.0 mm
12:15 PM 34.8°F1.6°C 26.4°F-3.1°C 71% 9.6 mph NNE15.4 kmh NNE 14.1 mph22.7 kmh 29.93 in1013.5 mb 0.00 in0.0 mm 0.00 in/hr0.0 mm/hr 0.00 in0.0 mm
12:10 PM 34.7°F1.5°C 26.9°F-2.8°C 73% 10.2 mph W16.4 kmh W 16.2 mph26.1 kmh 29.93 in1013.5 mb 0.00 in0.0 mm 0.00 in/hr0.0 mm/hr 0.00 in0.0 mm
12:00 PM 34.4°F1.3°C 27.6°F-2.4°C 76% 7.4 mph NW11.9 kmh NW 15.1 mph24.3 kmh 29.93 in1013.5 mb 0.00 in0.0 mm 0.00 in/hr0.0 mm/hr 0.00 in0.0 mm
11:50 AM 34.5°F1.4°C 28.0°F-2.2°C 77% 4.6 mph W7.4 kmh W 7.1 mph11.4 kmh 29.92 in1013.2 mb 0.00 in0.0 mm 0.00 in/hr0.0 mm/hr 0.00 in0.0 mm
11:45 AM 34.3°F1.3°C 28.2°F-2.1°C 78% 4.8 mph W7.7 kmh W 11.1 mph17.9 kmh 29.91 in1012.9 mb 0.00 in0.0 mm 0.00 in/hr0.0 mm/hr 0.00 in0.0 mm
11:40 AM 34.2°F1.2°C 28.3°F-2.1°C 79% 5.2 mph W8.4 kmh W 8.1 mph13.0 kmh 29.91 in1012.9 mb 0.00 in0.0 mm 0.00 in/hr0.0 mm/hr 0.00 in0.0 mm
11:30 AM 34.4°F1.3°C 28.5°F-1.9°C 79% 0.2 mph WNW0.3 kmh WNW -- 29.91 in1012.9 mb 0.00 in0.0 mm 0.00 in/hr0.0 mm/hr 0.00 in0.0 mm
11:20 AM 34.7°F1.5°C 28.8°F-1.8°C 79% 0.8 mph W1.3 kmh W 2.0 mph3.2 kmh 29.90 in1012.5 mb 0.00 in0.0 mm 0.00 in/hr0.0 mm/hr 0.00 in0.0 mm
11:15 AM 34.7°F1.5°C 28.8°F-1.8°C 79% 2.6 mph W4.2 kmh W 5.0 mph8.0 kmh 29.90 in1012.5 mb 0.00 in0.0 mm 0.00 in/hr0.0 mm/hr 0.00 in0.0 mm
11:10 AM 34.6°F1.4°C 29.0°F-1.7°C 80% 3.8 mph WNW6.1 kmh WNW 5.0 mph8.0 kmh 29.89 in1012.2 mb 0.00 in0.0 mm 0.00 in/hr0.0 mm/hr 0.00 in0.0 mm
11:00 AM 34.8°F1.6°C 28.9°F-1.7°C 79% 3.0 mph W4.8 kmh W 6.1 mph9.8 kmh 29.89 in1012.2 mb 0.00 in0.0 mm 0.00 in/hr0.0 mm/hr 0.00 in0.0 mm
10:50 AM 34.9°F1.6°C 29.0°F-1.7°C 79% 6.2 mph W10.0 kmh W 8.1 mph13.0 kmh 29.89 in1012.2 mb 0.00 in0.0 mm 0.00 in/hr0.0 mm/hr 0.00 in0.0 mm
10:45 AM 34.8°F1.6°C 29.0°F-1.7°C 79% 4.2 mph WNW6.8 kmh WNW 9.1 mph14.6 kmh 29.89 in1012.2 mb 0.00 in0.0 mm 0.00 in/hr0.0 mm/hr 0.00 in0.0 mm
10:40 AM 34.9°F1.6°C 29.0°F-1.7°C 79% 1.8 mph WSW2.9 kmh WSW 5.0 mph8.0 kmh 29.89 in1012.2 mb 0.00 in0.0 mm 0.00 in/hr0.0 mm/hr 0.00 in0.0 mm
10:30 AM 35.2°F1.8°C 29.0°F-1.7°C 78% 0.5 mph W0.8 kmh W 2.0 mph3.2 kmh 29.88 in1011.9 mb 0.00 in0.0 mm 0.00 in/hr0.0 mm/hr 0.00 in0.0 mm
10:20 AM 35.4°F1.9°C 29.2°F-1.6°C 78% 1.8 mph WNW2.9 kmh WNW 5.0 mph8.0 kmh 29.88 in1011.9 mb 0.00 in0.0 mm 0.00 in/hr0.0 mm/hr 0.00 in0.0 mm
10:15 AM 35.5°F1.9°C 29.0°F-1.7°C 77% 3.7 mph WSW6.0 kmh WSW 4.0 mph6.4 kmh 29.88 in1011.9 mb 0.00 in0.0 mm 0.00 in/hr0.0 mm/hr 0.00 in0.0 mm
10:10 AM 35.6°F2.0°C 29.1°F-1.6°C 77% 4.3 mph WNW6.9 kmh WNW 6.1 mph9.8 kmh 29.88 in1011.9 mb 0.00 in0.0 mm 0.00 in/hr0.0 mm/hr 0.00 in0.0 mm
10:00 AM 35.8°F2.1°C 29.3°F-1.5°C 77% 1.8 mph W2.9 kmh W 3.0 mph4.8 kmh 29.88 in1011.9 mb 0.00 in0.0 mm 0.00 in/hr0.0 mm/hr 0.00 in0.0 mm
09:50 AM 36.0°F2.2°C 29.1°F-1.6°C 76% 4.6 mph W7.4 kmh W 9.1 mph14.6 kmh 29.87 in1011.5 mb 0.00 in0.0 mm 0.00 in/hr0.0 mm/hr 0.00 in0.0 mm
09:45 AM 35.9°F2.2°C 29.0°F-1.7°C 76% 5.3 mph W8.5 kmh W 9.1 mph14.6 kmh 29.87 in1011.5 mb 0.00 in0.0 mm 0.00 in/hr0.0 mm/hr 0.00 in0.0 mm
09:40 AM 35.8°F2.1°C 28.6°F-1.9°C 75% 3.6 mph WNW5.8 kmh WNW 5.0 mph8.0 kmh 29.87 in1011.5 mb 0.00 in0.0 mm 0.00 in/hr0.0 mm/hr 0.00 in0.0 mm
09:30 AM 35.8°F2.1°C 28.6°F-1.9°C 75% 4.6 mph W7.4 kmh W 8.1 mph13.0 kmh 29.88 in1011.9 mb 0.00 in0.0 mm 0.00 in/hr0.0 mm/hr 0.00 in0.0 mm
09:20 AM 36.0°F2.2°C 28.5°F-1.9°C 74% 3.8 mph WNW6.1 kmh WNW 7.1 mph11.4 kmh 29.87 in1011.5 mb 0.00 in0.0 mm 0.00 in/hr0.0 mm/hr 0.00 in0.0 mm
09:15 AM 36.0°F2.2°C 28.5°F-1.9°C 74% 6.5 mph WNW10.5 kmh WNW 14.1 mph22.7 kmh 29.88 in1011.9 mb 0.00 in0.0 mm 0.00 in/hr0.0 mm/hr 0.00 in0.0 mm
09:10 AM 36.0°F2.2°C 28.2°F-2.1°C 73% 8.8 mph W14.2 kmh W 13.1 mph21.1 kmh 29.87 in1011.5 mb 0.00 in0.0 mm 0.00 in/hr0.0 mm/hr 0.00 in0.0 mm
09:00 AM 36.2°F2.3°C 28.4°F-2.0°C 73% 4.1 mph WNW6.6 kmh WNW 8.1 mph13.0 kmh 29.88 in1011.9 mb 0.00 in0.0 mm 0.00 in/hr0.0 mm/hr 0.00 in0.0 mm
08:50 AM 36.4°F2.4°C 28.5°F-1.9°C 73% 5.8 mph W9.3 kmh W 8.1 mph13.0 kmh 29.87 in1011.5 mb 0.00 in0.0 mm 0.00 in/hr0.0 mm/hr 0.00 in0.0 mm
08:45 AM 36.4°F2.4°C 28.2°F-2.1°C 72% 3.0 mph W4.8 kmh W 7.1 mph11.4 kmh 29.87 in1011.5 mb 0.00 in0.0 mm 0.00 in/hr0.0 mm/hr 0.00 in0.0 mm
08:40 AM 36.1°F2.3°C 27.9°F-2.3°C 72% 3.6 mph W5.8 kmh W 6.1 mph9.8 kmh 29.87 in1011.5 mb 0.00 in0.0 mm 0.00 in/hr0.0 mm/hr 0.00 in0.0 mm
08:30 AM 35.9°F2.2°C 27.4°F-2.6°C 71% 2.5 mph WSW4.0 kmh WSW 3.0 mph4.8 kmh 29.87 in1011.5 mb 0.00 in0.0 mm 0.00 in/hr0.0 mm/hr 0.00 in0.0 mm
08:20 AM 35.5°F1.9°C 27.0°F-2.8°C 71% 0.7 mph SW1.1 kmh SW 2.0 mph3.2 kmh 29.87 in1011.5 mb 0.00 in0.0 mm 0.00 in/hr0.0 mm/hr 0.00 in0.0 mm
08:15 AM 35.3°F1.8°C 26.8°F-2.9°C 71% 0.7 mph W1.1 kmh W 6.1 mph9.8 kmh 29.87 in1011.5 mb 0.00 in0.0 mm 0.00 in/hr0.0 mm/hr 0.00 in0.0 mm
08:10 AM 35.3°F1.8°C 26.5°F-3.1°C 70% 1.3 mph SW2.1 kmh SW 4.0 mph6.4 kmh 29.88 in1011.9 mb 0.00 in0.0 mm 0.00 in/hr0.0 mm/hr 0.00 in0.0 mm
08:00 AM 34.8°F1.6°C 26.4°F-3.1°C 71% 0.1 mph SW0.2 kmh SW -- 29.87 in1011.5 mb 0.00 in0.0 mm 0.00 in/hr0.0 mm/hr 0.00 in0.0 mm
07:50 AM 33.8°F1.0°C 26.8°F-2.9°C 75% 0.9 mph SW1.4 kmh SW 5.0 mph8.0 kmh 29.88 in1011.9 mb 0.00 in0.0 mm 0.00 in/hr0.0 mm/hr 0.00 in0.0 mm
07:45 AM 33.5°F0.8°C 27.0°F-2.8°C 77% Calm Calm 1.0 mph1.6 kmh 29.88 in1011.9 mb 0.00 in0.0 mm 0.00 in/hr0.0 mm/hr 0.00 in0.0 mm
07:40 AM 33.3°F0.7°C 27.2°F-2.7°C 78% Calm Calm 3.0 mph4.8 kmh 29.88 in1011.9 mb 0.00 in0.0 mm 0.00 in/hr0.0 mm/hr 0.00 in0.0 mm
07:30 AM 32.9°F0.5°C 27.1°F-2.7°C 79% Calm Calm 1.0 mph1.6 kmh 29.88 in1011.9 mb 0.00 in0.0 mm 0.00 in/hr0.0 mm/hr 0.00 in0.0 mm
07:20 AM 33.0°F0.6°C 27.2°F-2.7°C 79% Calm Calm -- 29.88 in1011.9 mb 0.00 in0.0 mm 0.00 in/hr0.0 mm/hr 0.00 in0.0 mm
07:15 AM 33.1°F0.6°C 27.3°F-2.6°C 79% Calm Calm -- 29.88 in1011.9 mb 0.00 in0.0 mm 0.00 in/hr0.0 mm/hr 0.00 in0.0 mm
07:10 AM 33.3°F0.7°C 27.5°F-2.5°C 79% Calm Calm -- 29.88 in1011.9 mb 0.00 in0.0 mm 0.00 in/hr0.0 mm/hr 0.00 in0.0 mm
07:00 AM 33.3°F0.7°C 27.5°F-2.5°C 79% Calm Calm -- 29.88 in1011.9 mb 0.00 in0.0 mm 0.00 in/hr0.0 mm/hr 0.00 in0.0 mm
06:50 AM 33.3°F0.7°C 27.5°F-2.5°C 79% Calm Calm -- 29.88 in1011.9 mb 0.00 in0.0 mm 0.00 in/hr0.0 mm/hr 0.00 in0.0 mm
06:45 AM 33.4°F0.8°C 27.3°F-2.6°C 78% Calm Calm -- 29.88 in1011.9 mb 0.00 in0.0 mm 0.00 in/hr0.0 mm/hr 0.00 in0.0 mm
06:40 AM 33.3°F0.7°C 27.2°F-2.7°C 78% Calm Calm -- 29.88 in1011.9 mb 0.00 in0.0 mm 0.00 in/hr0.0 mm/hr 0.00 in0.0 mm
06:30 AM 33.3°F0.7°C 27.2°F-2.7°C 78% Calm Calm -- 29.88 in1011.9 mb 0.00 in0.0 mm 0.00 in/hr0.0 mm/hr 0.00 in0.0 mm
06:20 AM 33.2°F0.7°C 27.1°F-2.7°C 78% Calm Calm -- 29.88 in1011.9 mb 0.00 in0.0 mm 0.00 in/hr0.0 mm/hr 0.00 in0.0 mm
06:15 AM 33.1°F0.6°C 27.3°F-2.6°C 79% Calm Calm -- 29.88 in1011.9 mb 0.00 in0.0 mm 0.00 in/hr0.0 mm/hr 0.00 in0.0 mm
06:10 AM 33.1°F0.6°C 27.3°F-2.6°C 79% Calm Calm -- 29.88 in1011.9 mb 0.00 in0.0 mm 0.00 in/hr0.0 mm/hr 0.00 in0.0 mm
06:00 AM 33.2°F0.7°C 27.7°F-2.4°C 80% Calm Calm -- 29.88 in1011.9 mb 0.00 in0.0 mm 0.00 in/hr0.0 mm/hr 0.00 in0.0 mm
05:50 AM 33.3°F0.7°C 27.5°F-2.5°C 79% Calm Calm -- 29.88 in1011.9 mb 0.00 in0.0 mm 0.00 in/hr0.0 mm/hr 0.00 in0.0 mm
05:45 AM 33.1°F0.6°C 27.3°F-2.6°C 79% Calm Calm -- 29.88 in1011.9 mb 0.00 in0.0 mm 0.00 in/hr0.0 mm/hr 0.00 in0.0 mm
05:40 AM 33.1°F0.6°C 27.6°F-2.4°C 80% Calm Calm -- 29.88 in1011.9 mb 0.00 in0.0 mm 0.00 in/hr0.0 mm/hr 0.00 in0.0 mm
05:30 AM 33.1°F0.6°C 27.6°F-2.4°C 80% Calm Calm -- 29.89 in1012.2 mb 0.00 in0.0 mm 0.00 in/hr0.0 mm/hr 0.00 in0.0 mm
05:20 AM 33.2°F0.7°C 27.4°F-2.6°C 79% 0.8 mph NW1.3 kmh NW 4.0 mph6.4 kmh 29.89 in1012.2 mb 0.00 in0.0 mm 0.00 in/hr0.0 mm/hr 0.00 in0.0 mm
05:15 AM 33.3°F0.7°C 27.5°F-2.5°C 79% Calm Calm -- 29.89 in1012.2 mb 0.00 in0.0 mm 0.00 in/hr0.0 mm/hr 0.00 in0.0 mm
05:10 AM 33.4°F0.8°C 27.3°F-2.6°C 78% Calm Calm -- 29.89 in1012.2 mb 0.00 in0.0 mm 0.00 in/hr0.0 mm/hr 0.00 in0.0 mm
05:00 AM 33.5°F0.8°C 27.0°F-2.8°C 77% Calm Calm -- 29.89 in1012.2 mb 0.00 in0.0 mm 0.00 in/hr0.0 mm/hr 0.00 in0.0 mm
04:50 AM 33.4°F0.8°C 27.3°F-2.6°C 78% Calm Calm -- 29.89 in1012.2 mb 0.00 in0.0 mm 0.00 in/hr0.0 mm/hr 0.00 in0.0 mm
04:45 AM 33.3°F0.7°C 27.2°F-2.7°C 78% Calm Calm -- 29.89 in1012.2 mb 0.00 in0.0 mm 0.00 in/hr0.0 mm/hr 0.00 in0.0 mm
04:40 AM 33.3°F0.7°C 27.2°F-2.7°C 78% Calm Calm -- 29.89 in1012.2 mb 0.00 in0.0 mm 0.00 in/hr0.0 mm/hr 0.00 in0.0 mm
04:30 AM 33.1°F0.6°C 27.0°F-2.8°C 78% Calm Calm -- 29.90 in1012.5 mb 0.00 in0.0 mm 0.00 in/hr0.0 mm/hr 0.00 in0.0 mm
04:20 AM 33.2°F0.7°C 27.1°F-2.7°C 78% Calm Calm -- 29.91 in1012.9 mb 0.00 in0.0 mm 0.00 in/hr0.0 mm/hr 0.00 in0.0 mm
04:15 AM 33.4°F0.8°C 27.3°F-2.6°C 78% Calm Calm -- 29.91 in1012.9 mb 0.00 in0.0 mm 0.00 in/hr0.0 mm/hr 0.00 in0.0 mm
04:10 AM 33.4°F0.8°C 26.9°F-2.8°C 77% Calm Calm -- 29.91 in1012.9 mb 0.00 in0.0 mm 0.00 in/hr0.0 mm/hr 0.00 in0.0 mm
04:00 AM 33.3°F0.7°C 26.9°F-2.8°C 77% Calm Calm 1.0 mph1.6 kmh 29.90 in1012.5 mb 0.00 in0.0 mm 0.00 in/hr0.0 mm/hr 0.00 in0.0 mm
03:50 AM 33.3°F0.7°C 26.9°F-2.8°C 77% Calm Calm -- 29.91 in1012.9 mb 0.00 in0.0 mm 0.00 in/hr0.0 mm/hr 0.00 in0.0 mm
03:45 AM 33.4°F0.8°C 26.9°F-2.8°C 77% Calm Calm -- 29.91 in1012.9 mb 0.00 in0.0 mm 0.00 in/hr0.0 mm/hr 0.00 in0.0 mm
03:40 AM 33.4°F0.8°C 26.9°F-2.8°C 77% Calm Calm -- 29.92 in1013.2 mb 0.00 in0.0 mm 0.00 in/hr0.0 mm/hr 0.00 in0.0 mm
03:30 AM 33.4°F0.8°C 27.3°F-2.6°C 78% 2.8 mph SSE4.5 kmh SSE 3.0 mph4.8 kmh 29.92 in1013.2 mb 0.00 in0.0 mm 0.00 in/hr0.0 mm/hr 0.00 in0.0 mm
03:20 AM 33.3°F0.7°C 27.5°F-2.5°C 79% Calm Calm -- 29.93 in1013.5 mb 0.00 in0.0 mm 0.00 in/hr0.0 mm/hr 0.00 in0.0 mm
03:15 AM 33.3°F0.7°C 27.5°F-2.5°C 79% Calm Calm 3.0 mph4.8 kmh 29.93 in1013.5 mb 0.00 in0.0 mm 0.00 in/hr0.0 mm/hr 0.00 in0.0 mm
03:10 AM 33.3°F0.7°C 27.8°F-2.3°C 80% 2.2 mph SSE3.5 kmh SSE 5.0 mph8.0 kmh 29.93 in1013.5 mb 0.00 in0.0 mm 0.00 in/hr0.0 mm/hr 0.00 in0.0 mm
03:00 AM 33.0°F0.6°C 28.1°F-2.2°C 82% 0.1 mph SE0.2 kmh SE -- 29.94 in1013.9 mb 0.00 in0.0 mm 0.00 in/hr0.0 mm/hr 0.00 in0.0 mm
02:50 AM 32.8°F0.4°C 28.2°F-2.1°C 83% 0.6 mph SE1.0 kmh SE 4.0 mph6.4 kmh 29.94 in1013.9 mb 0.00 in0.0 mm 0.00 in/hr0.0 mm/hr 0.00 in0.0 mm
02:45 AM 32.8°F0.4°C 28.5°F-1.9°C 84% 2.4 mph SE3.9 kmh SE 4.0 mph6.4 kmh 29.95 in1014.2 mb 0.00 in0.0 mm 0.00 in/hr0.0 mm/hr 0.00 in0.0 mm
02:40 AM 32.7°F0.4°C 28.4°F-2.0°C 84% 0.3 mph SE0.5 kmh SE -- 29.95 in1014.2 mb 0.00 in0.0 mm 0.00 in/hr0.0 mm/hr 0.00 in0.0 mm
02:30 AM 32.3°F0.2°C 28.6°F-1.9°C 86% 1.2 mph SSE1.9 kmh SSE 5.0 mph8.0 kmh 29.95 in1014.2 mb 0.00 in0.0 mm 0.00 in/hr0.0 mm/hr 0.00 in0.0 mm
02:20 AM 32.1°F0.1°C 28.4°F-2.0°C 86% 0.5 mph ESE0.8 kmh ESE -- 29.96 in1014.6 mb 0.00 in0.0 mm 0.00 in/hr0.0 mm/hr 0.00 in0.0 mm
02:15 AM 32.1°F0.1°C 28.7°F-1.8°C 87% Calm Calm -- 29.96 in1014.6 mb 0.00 in0.0 mm 0.00 in/hr0.0 mm/hr 0.00 in0.0 mm
02:10 AM 32.0°F0.0°C 28.5°F-1.9°C 87% Calm Calm 4.0 mph6.4 kmh 29.96 in1014.6 mb 0.00 in0.0 mm 0.00 in/hr0.0 mm/hr 0.00 in0.0 mm
02:00 AM 31.9°F-0.1°C 28.5°F-1.9°C 87% 1.2 mph SE1.9 kmh SE 4.0 mph6.4 kmh 29.96 in1014.6 mb 0.00 in0.0 mm 0.00 in/hr0.0 mm/hr 0.00 in0.0 mm
01:50 AM 31.8°F-0.1°C 28.6°F-1.9°C 88% 0.8 mph ESE1.3 kmh ESE 5.0 mph8.0 kmh 29.97 in1014.9 mb 0.00 in0.0 mm 0.00 in/hr0.0 mm/hr 0.00 in0.0 mm
01:45 AM 31.7°F-0.2°C 28.5°F-1.9°C 88% 0.1 mph ESE0.2 kmh ESE -- 29.98 in1015.2 mb 0.00 in0.0 mm 0.00 in/hr0.0 mm/hr 0.00 in0.0 mm
01:40 AM 31.7°F-0.2°C 28.5°F-1.9°C 88% Calm Calm -- 29.98 in1015.2 mb 0.00 in0.0 mm 0.00 in/hr0.0 mm/hr 0.00 in0.0 mm
01:30 AM 31.6°F-0.2°C 28.4°F-2.0°C 88% Calm Calm -- 29.98 in1015.2 mb 0.00 in0.0 mm 0.00 in/hr0.0 mm/hr 0.00 in0.0 mm
01:20 AM 31.5°F-0.3°C 28.3°F-2.1°C 88% Calm Calm -- 29.99 in1015.6 mb 0.00 in0.0 mm 0.00 in/hr0.0 mm/hr 0.00 in0.0 mm
01:15 AM 31.5°F-0.3°C 28.3°F-2.1°C 88% Calm Calm -- 29.99 in1015.6 mb 0.00 in0.0 mm 0.00 in/hr0.0 mm/hr 0.00 in0.0 mm
01:10 AM 31.4°F-0.3°C 28.3°F-2.1°C 88% Calm Calm -- 30.00 in1015.9 mb 0.00 in0.0 mm 0.00 in/hr0.0 mm/hr 0.00 in0.0 mm
01:00 AM 31.3°F-0.4°C 28.1°F-2.2°C 88% 2.5 mph SE4.0 kmh SE 6.1 mph9.8 kmh 30.00 in1015.9 mb 0.00 in0.0 mm 0.00 in/hr0.0 mm/hr 0.00 in0.0 mm
12:50 AM 31.2°F-0.4°C 28.0°F-2.2°C 88% 2.9 mph ESE4.7 kmh ESE 5.0 mph8.0 kmh 30.01 in1016.3 mb 0.00 in0.0 mm 0.00 in/hr0.0 mm/hr 0.00 in0.0 mm
12:45 AM 31.1°F-0.5°C 28.0°F-2.2°C 88% 5.1 mph SE8.2 kmh SE 6.1 mph9.8 kmh 30.01 in1016.3 mb 0.00 in0.0 mm 0.00 in/hr0.0 mm/hr 0.00 in0.0 mm
12:40 AM 31.1°F-0.5°C 27.7°F-2.4°C 87% 1.7 mph SE2.7 kmh SE -- 30.01 in1016.3 mb 0.00 in0.0 mm 0.00 in/hr0.0 mm/hr 0.00 in0.0 mm
12:30 AM 31.0°F-0.6°C 27.6°F-2.4°C 87% 0.5 mph SE0.8 kmh SE 4.0 mph6.4 kmh 30.02 in1016.6 mb 0.00 in0.0 mm 0.00 in/hr0.0 mm/hr 0.00 in0.0 mm
12:20 AM 30.9°F-0.6°C 27.5°F-2.5°C 87% 1.6 mph SSE2.6 kmh SSE 8.1 mph13.0 kmh 30.02 in1016.6 mb 0.00 in0.0 mm 0.00 in/hr0.0 mm/hr 0.00 in0.0 mm
12:15 AM 30.8°F-0.7°C 27.4°F-2.6°C 87% 5.7 mph SE9.2 kmh SE 7.1 mph11.4 kmh 30.02 in1016.6 mb 0.00 in0.0 mm 0.00 in/hr0.0 mm/hr 0.00 in0.0 mm
12:10 AM 30.8°F-0.7°C 27.1°F-2.7°C 86% 3.6 mph SE5.8 kmh SE 6.1 mph9.8 kmh 30.02 in1016.6 mb 0.00 in0.0 mm 0.00 in/hr0.0 mm/hr 0.00 in0.0 mm
12:00 AM 30.7°F-0.7°C 27.0°F-2.8°C 86% 3.9 mph SE6.3 kmh SE 5.0 mph8.0 kmh 30.03 in1016.9 mb 0.00 in0.0 mm 0.00 in/hr0.0 mm/hr 0.00 in0.0 mm